• Join FlightAware (Why Join?)
  • Login
  • US Flag 
02:08AM EDT


 

Airport Tracker/Info


-or-


 

Live Flight TrackerFlight Track Log ✈ N51FD ✈ 08-Jun-2013 ✈ KHTO - KBED

Flight Track Log - Related Links

Times and Time Zones

All times are in EDT time to prevent confusion due to time zone crossing. See the N51FD flight status page for this flight to view local times or setup timezone preferences in your user account.

Time Position Orientation Groundspeed Altitude Reporting Facility
EDT Latitude Longitude Course Direction KTS MPH feet Rate Location/Type
02:59PM 40.9333 -72.3167 25° Northeast 132 152 1,300  Level New York TRACON
03:00PM 40.9667 -72.3000 21° North 140 161 2,000 660 Climbing New York TRACON
03:01PM 41.0000 -72.3167 339° North 143 165 2,700 600 Climbing New York TRACON
03:02PM 41.0333 -72.3333 339° North 124 143 3,300 540 Climbing New York TRACON
03:03PM 41.0667 -72.3500 339° North 142 163 3,800 420 Climbing New York TRACON
03:03PM 41.0853 -72.3519 355° North 141 162 3,900 480 Climbing Boston Center
03:04PM 41.0895 -72.1707 25° Northeast  Level Estimated
03:04PM 41.1375 -72.3656 349° North 131 151 4,700  Level Boston Center
03:05PM 41.1769 -72.3767 348° North 145 167 5,200 60 Climbing Boston Center
03:06PM 41.2250 -72.3683 North 182 209 4,900 -180 Descending Boston Center
03:07PM 41.2708 -72.3158 41° Northeast 187 215 4,900  Level Boston Center
03:08PM 41.3103 -72.2769 37° Northeast 184 212 4,900  Level Boston Center
03:09PM 41.3622 -72.2328 33° Northeast 186 214 4,900  Level Boston Center
03:11PM 41.4019 -72.1911 38° Northeast 188 216 4,900  Level Boston Center
03:12PM 41.4433 -72.1467 39° Northeast 187 215 4,900  Level Boston Center
03:13PM 41.4850 -72.0992 40° Northeast 186 214 4,900  Level Boston Center
03:13PM 41.5203 -72.0631 37° Northeast 186 214 4,900  Level Boston Center
03:14PM 41.5556 -72.0239 40° Northeast 191 220 4,900  Level Boston Center
03:15PM 41.6033 -72.0069 15° North 168 193 4,900  Level Boston Center
03:16PM 41.6514 -72.0094 358° North 169 194 4,900  Level Boston Center
03:17PM 41.6869 -72.0092 360° North 175 201 5,000 60 Climbing Boston Center
03:18PM 41.7286 -72.0089 360° North 176 203 5,000  Level Boston Center
03:19PM 41.7786 -72.0058 North 171 197 5,000  Level Boston Center
03:20PM 41.8244 -72.0000 North 170 196 5,000  Level Boston Center
03:21PM 41.8722 -71.9969 North 169 194 5,000  Level Boston Center
03:22PM 41.9222 -71.9908 North 166 191 5,000  Level Boston Center
03:23PM 41.9639 -72.0044 346° North 158 182 5,000  Level Boston Center
03:24PM 42.0100 -72.0125 353° North 162 186 5,000  Level Boston Center
03:25PM 42.0536 -72.0178 355° North 158 182 5,000  Level Boston Center
03:26PM 42.0975 -72.0261 352° North 159 183 5,000  Level Boston Center
03:27PM 42.1369 -71.9781 42° Northeast 180 207 5,000  Level Boston Center
03:28PM 42.1764 -71.9358 38° Northeast 180 207 5,000  Level Boston Center
03:29PM 42.2178 -71.8878 41° Northeast 185 213 5,000 -120 Level Boston Center
03:31PM 42.3000 -71.8000 38° Northeast 183 211 4,800 -60 Descending KA90
03:32PM 42.3333 -71.7667 36° Northeast 178 205 4,900  Climbing KA90
03:33PM 42.3667 -71.7333 36° Northeast 184 212 4,900 -240 Level KA90
03:34PM 42.4167 -71.6833 36° Northeast 183 211 4,400 -420 Descending KA90
03:35PM 42.4500 -71.6333 48° Northeast 179 206 4,100 -600 Descending KA90
03:36PM 42.4833 -71.5833 48° Northeast 178 205 3,400 -600 Descending KA90
03:37PM 42.5167 -71.5333 48° Northeast 182 209 2,900 -240 Descending KA90
03:38PM 42.5500 -71.4833 48° Northeast 174 200 3,000 -180 Climbing KA90
03:39PM 42.5667 -71.4167 71° East 192 221 2,600 -540 Descending KA90
03:40PM 42.5500 -71.3500 109° East 186 214 2,000 -600 Descending KA90
03:41PM 42.5167 -71.3000 132° Southeast 184 212 1,400 -360 Descending KA90
03:43PM 42.5000 -71.2167 105° East 110 127 1,100 -240 Descending KA90
03:44PM 42.4833 -71.2167 180° South 98 113 800 -300 Descending KA90
03:45PM 42.4667 -71.2333 216° Southwest 105 121 500 -300 Descending KA90